createdAt,value
2018-05-16T00:02:04.397Z,97.10
2018-05-16T00:04:32.007Z,97.30
2018-05-16T00:06:59.534Z,97.30
2018-05-16T00:09:27.041Z,97.30
2018-05-16T00:11:54.594Z,97.40
2018-05-16T00:14:22.191Z,97.50
2018-05-16T00:16:50.461Z,97.50
2018-05-16T00:19:18.730Z,97.60
2018-05-16T00:21:46.265Z,97.60
2018-05-16T00:24:13.763Z,97.50
2018-05-16T00:26:42.046Z,97.80
2018-05-16T00:29:09.591Z,97.80
2018-05-16T00:31:37.919Z,98.00
2018-05-16T00:34:05.436Z,98.00
2018-05-16T00:36:33.717Z,98.20
2018-05-16T00:39:01.219Z,98.20
2018-05-16T00:41:28.787Z,98.40
2018-05-16T00:43:56.327Z,98.30
2018-05-16T00:46:23.831Z,98.60
2018-05-16T00:48:51.346Z,98.60
2018-05-16T00:51:30.651Z,98.70
2018-05-16T00:53:58.187Z,98.80
2018-05-16T00:56:25.704Z,98.80
2018-05-16T00:58:53.223Z,98.80
2018-05-16T01:01:20.801Z,98.70
2018-05-16T01:03:48.371Z,99.00
2018-05-16T01:06:15.910Z,99.10
2018-05-16T01:08:44.206Z,99.20
2018-05-16T01:11:11.761Z,99.20
2018-05-16T01:13:40.064Z,99.50
2018-05-16T01:16:07.568Z,99.40
2018-05-16T01:18:35.104Z,99.40
2018-05-16T01:21:02.644Z,99.70
2018-05-16T01:23:30.189Z,99.50
2018-05-16T01:25:57.716Z,99.70
2018-05-16T01:28:25.829Z,99.80
2018-05-16T01:30:53.365Z,99.90
2018-05-16T01:33:20.891Z,99.90
2018-05-16T01:35:48.403Z,99.90
2018-05-16T01:38:15.928Z,99.90
2018-05-16T01:40:43.451Z,99.90
2018-05-16T01:43:10.968Z,99.90
2018-05-16T01:45:39.330Z,99.90
2018-05-16T01:48:06.874Z,99.90
2018-05-16T01:50:34.404Z,99.90
2018-05-16T01:53:01.907Z,99.90
2018-05-16T01:55:29.493Z,99.90
2018-05-16T01:57:56.994Z,99.90
2018-05-16T02:00:24.511Z,99.90
2018-05-16T02:02:52.033Z,99.90
2018-05-16T02:05:19.582Z,99.90
2018-05-16T02:07:47.093Z,99.90
2018-05-16T02:10:15.388Z,99.90
2018-05-16T02:12:42.912Z,99.90
2018-05-16T02:15:10.447Z,99.90
2018-05-16T02:17:37.950Z,99.90
2018-05-16T02:20:05.449Z,99.90
2018-05-16T02:22:32.976Z,99.90
2018-05-16T02:25:01.245Z,99.90
2018-05-16T02:27:28.752Z,99.90
2018-05-16T02:29:56.309Z,99.90
2018-05-16T02:32:23.824Z,99.90
2018-05-16T02:34:51.341Z,99.90
2018-05-16T02:37:18.905Z,99.90
2018-05-16T02:39:46.441Z,99.90
2018-05-16T02:42:13.963Z,99.90
2018-05-16T02:44:41.582Z,99.90
2018-05-16T02:47:09.153Z,99.90
2018-05-16T02:49:36.721Z,99.90
2018-05-16T02:52:04.248Z,99.90
2018-05-16T02:54:31.919Z,99.90
2018-05-16T02:56:59.343Z,99.90
2018-05-16T02:59:26.934Z,99.90
2018-05-16T03:01:54.443Z,99.90
2018-05-16T03:04:21.955Z,99.90
2018-05-16T03:06:49.489Z,99.90
2018-05-16T03:09:17.010Z,99.90
2018-05-16T03:11:44.537Z,99.90
2018-05-16T03:14:12.083Z,99.90
2018-05-16T03:16:40.355Z,99.90
2018-05-16T03:19:07.872Z,99.90
2018-05-16T03:21:35.420Z,99.90
2018-05-16T03:24:02.954Z,99.90
2018-05-16T03:26:30.507Z,99.90
2018-05-16T03:28:58.034Z,99.90
2018-05-16T03:31:26.333Z,99.90
2018-05-16T03:33:54.654Z,99.90
2018-05-16T03:36:22.197Z,99.90
2018-05-16T03:38:49.732Z,99.90
2018-05-16T03:41:18.013Z,99.90
2018-05-16T03:43:46.273Z,99.90
2018-05-16T03:46:13.793Z,99.90
2018-05-16T03:48:41.296Z,99.90
2018-05-16T03:51:08.830Z,99.90
2018-05-16T03:53:36.357Z,99.90
2018-05-16T03:56:03.869Z,99.90
2018-05-16T03:58:43.760Z,99.90
2018-05-16T04:01:23.108Z,99.90
2018-05-16T04:04:10.173Z,99.90
2018-05-16T04:06:37.687Z,99.90
2018-05-16T04:09:05.203Z,99.90
2018-05-16T04:11:32.734Z,99.90
2018-05-16T04:14:00.257Z,99.90
2018-05-16T04:16:27.762Z,99.90
2018-05-16T04:18:55.290Z,99.90
2018-05-16T04:21:22.816Z,99.90
2018-05-16T04:23:50.317Z,99.90
2018-05-16T04:26:17.816Z,99.90
2018-05-16T04:28:45.403Z,99.90
2018-05-16T04:31:13.021Z,99.90
2018-05-16T04:33:40.554Z,99.90
2018-05-16T04:36:08.173Z,99.90
2018-05-16T04:38:35.770Z,99.90
2018-05-16T04:41:03.349Z,99.90
2018-05-16T04:43:30.895Z,99.90
2018-05-16T04:45:58.474Z,99.90
2018-05-16T04:48:26.007Z,99.90
2018-05-16T04:50:53.538Z,99.90
2018-05-16T04:53:21.060Z,99.90
2018-05-16T04:55:48.588Z,99.90
2018-05-16T04:58:16.080Z,99.90
2018-05-16T05:00:43.619Z,99.90
2018-05-16T05:03:11.129Z,99.90
2018-05-16T05:05:38.645Z,99.90
2018-05-16T05:08:06.190Z,99.90
2018-05-16T05:10:33.737Z,99.90
2018-05-16T05:13:01.237Z,99.90
2018-05-16T05:15:28.775Z,99.90
2018-05-16T05:17:56.307Z,99.90
2018-05-16T05:20:24.640Z,99.90
2018-05-16T05:22:52.886Z,99.90
2018-05-16T05:25:20.386Z,99.90
2018-05-16T05:27:47.974Z,99.90
2018-05-16T05:30:16.302Z,99.90
2018-05-16T05:32:43.821Z,99.90
2018-05-16T05:35:12.106Z,99.90
2018-05-16T05:37:39.685Z,99.90
2018-05-16T05:40:07.220Z,99.90
2018-05-16T05:42:34.738Z,99.90
2018-05-16T05:45:02.266Z,99.90
2018-05-16T05:47:29.769Z,99.90
2018-05-16T05:49:57.286Z,99.90
2018-05-16T05:52:24.852Z,99.90
2018-05-16T05:54:52.355Z,99.90
2018-05-16T05:57:19.880Z,99.90
2018-05-16T05:59:47.479Z,99.90
2018-05-16T06:02:15.003Z,99.90
2018-05-16T06:04:42.510Z,99.90
2018-05-16T06:07:10.037Z,99.90
2018-05-16T06:09:37.547Z,99.90
2018-05-16T06:12:05.886Z,99.90
2018-05-16T06:14:33.393Z,99.90
2018-05-16T06:17:00.904Z,99.90
2018-05-16T06:19:28.546Z,99.90
2018-05-16T06:21:55.977Z,99.70
2018-05-16T06:24:23.483Z,99.30
2018-05-16T06:26:51.021Z,99.50
2018-05-16T06:29:18.531Z,98.60
2018-05-16T06:31:46.811Z,98.50
2018-05-16T06:34:14.390Z,98.40
2018-05-16T06:36:41.897Z,98.00
2018-05-16T06:39:09.450Z,98.10
2018-05-16T06:41:36.992Z,97.50
2018-05-16T06:44:04.524Z,97.30
2018-05-16T06:46:32.030Z,97.60
2018-05-16T06:48:59.569Z,97.40
2018-05-16T06:51:27.090Z,97.20
2018-05-16T06:53:54.622Z,97.10
2018-05-16T06:56:22.186Z,96.90
2018-05-16T06:58:49.653Z,96.90
2018-05-16T07:01:17.177Z,96.70
2018-05-16T07:03:44.717Z,96.70
2018-05-16T07:06:13.006Z,95.90
2018-05-16T07:08:40.505Z,95.80
2018-05-16T07:11:08.109Z,96.10
2018-05-16T07:13:35.770Z,95.40
2018-05-16T07:16:03.209Z,96.00
2018-05-16T07:18:30.758Z,96.00
2018-05-16T07:20:58.258Z,95.40
2018-05-16T07:23:25.773Z,96.10
2018-05-16T07:25:53.328Z,96.60
2018-05-16T07:28:20.832Z,95.50
2018-05-16T07:30:49.094Z,95.90
2018-05-16T07:33:16.639Z,95.80
2018-05-16T07:35:44.153Z,94.90
2018-05-16T07:38:11.669Z,94.50
2018-05-16T07:40:39.190Z,94.70
2018-05-16T07:43:06.706Z,93.70
2018-05-16T07:45:34.977Z,94.10
2018-05-16T07:48:02.529Z,94.10
2018-05-16T07:50:30.075Z,94.10
2018-05-16T07:52:57.594Z,94.20
2018-05-16T07:55:25.126Z,95.30
2018-05-16T07:57:53.404Z,96.10
2018-05-16T08:00:21.715Z,95.90
2018-05-16T08:02:49.272Z,95.90
2018-05-16T08:05:16.778Z,96.40
2018-05-16T08:07:44.294Z,95.70
2018-05-16T08:10:11.823Z,95.90
2018-05-16T08:12:40.181Z,95.50
2018-05-16T08:15:09.222Z,94.70
2018-05-16T08:17:36.774Z,94.80
2018-05-16T08:20:04.279Z,95.00
2018-05-16T08:22:31.785Z,94.30
2018-05-16T08:25:00.082Z,93.50
2018-05-16T08:27:28.359Z,93.70
2018-05-16T08:29:55.861Z,93.60
2018-05-16T08:32:23.405Z,95.00
2018-05-16T08:34:50.907Z,95.10
2018-05-16T08:37:19.193Z,95.00
2018-05-16T08:39:47.530Z,93.70
2018-05-16T08:42:15.044Z,93.70
2018-05-16T08:44:43.337Z,94.80
2018-05-16T08:47:10.900Z,94.80
2018-05-16T08:49:38.418Z,95.10
2018-05-16T08:52:05.961Z,94.60
2018-05-16T08:54:33.504Z,95.00
2018-05-16T08:57:01.010Z,95.20
2018-05-16T08:59:29.486Z,94.10
2018-05-16T09:01:57.765Z,92.60
2018-05-16T09:04:25.331Z,92.50
2018-05-16T09:06:52.874Z,93.40
2018-05-16T09:09:20.422Z,91.80
2018-05-16T09:11:47.939Z,91.90
2018-05-16T09:14:15.462Z,93.00
2018-05-16T09:16:43.000Z,93.20
2018-05-16T09:19:10.515Z,92.40
2018-05-16T09:21:38.047Z,91.00
2018-05-16T09:24:06.335Z,90.70
2018-05-16T09:26:33.861Z,90.70
2018-05-16T09:29:01.371Z,91.20
2018-05-16T09:31:28.877Z,92.10
2018-05-16T09:33:56.419Z,90.70
2018-05-16T09:36:23.936Z,90.80
2018-05-16T09:38:51.438Z,92.70
2018-05-16T09:41:18.983Z,92.40
2018-05-16T09:43:46.489Z,92.10
2018-05-16T09:46:13.991Z,92.40
2018-05-16T09:48:41.597Z,90.60
2018-05-16T09:51:09.133Z,89.60
2018-05-16T09:53:36.654Z,90.70
2018-05-16T09:56:04.186Z,91.50
2018-05-16T09:58:33.189Z,91.30
2018-05-16T10:01:00.733Z,91.50
2018-05-16T10:03:28.269Z,92.30
2018-05-16T10:05:55.798Z,92.80
2018-05-16T10:08:23.374Z,92.40
2018-05-16T10:10:50.890Z,92.60
2018-05-16T10:13:18.427Z,92.60
2018-05-16T10:15:45.926Z,92.40
2018-05-16T10:18:13.448Z,92.40
2018-05-16T10:20:40.989Z,91.90
2018-05-16T10:23:08.494Z,92.60
2018-05-16T10:25:35.996Z,92.50
2018-05-16T10:28:04.269Z,92.00
2018-05-16T10:30:31.773Z,92.00
2018-05-16T10:32:59.275Z,92.10
2018-05-16T10:35:26.821Z,92.70
2018-05-16T10:37:54.354Z,93.40
2018-05-16T10:40:21.916Z,93.40
2018-05-16T10:42:49.446Z,93.30
2018-05-16T10:45:16.948Z,93.30
2018-05-16T10:47:44.444Z,93.30
2018-05-16T10:50:11.961Z,93.20
2018-05-16T10:52:39.464Z,93.50
2018-05-16T10:55:07.004Z,94.00
2018-05-16T10:57:35.323Z,95.60
2018-05-16T11:00:02.831Z,95.60
2018-05-16T11:02:30.330Z,95.20
2018-05-16T11:04:57.866Z,95.00
2018-05-16T11:07:26.163Z,96.30
2018-05-16T11:09:54.444Z,95.70
2018-05-16T11:12:21.963Z,95.60
2018-05-16T11:14:50.273Z,96.00
2018-05-16T11:17:17.766Z,95.90
2018-05-16T11:19:45.273Z,96.20
2018-05-16T11:22:12.873Z,94.90
2018-05-16T11:24:40.398Z,94.60
2018-05-16T11:27:07.914Z,94.70
2018-05-16T11:29:35.466Z,94.50
2018-05-16T11:32:02.980Z,94.60
2018-05-16T11:34:30.495Z,94.00
2018-05-16T11:36:58.028Z,94.30
2018-05-16T11:39:25.625Z,94.00
2018-05-16T11:41:53.254Z,93.80
2018-05-16T11:44:20.674Z,95.40
2018-05-16T11:46:48.169Z,95.50
2018-05-16T11:49:15.747Z,95.50
2018-05-16T11:51:44.057Z,94.00
2018-05-16T11:54:11.593Z,93.90
2018-05-16T11:56:39.097Z,94.90
2018-05-16T11:59:06.640Z,94.10
2018-05-16T12:01:34.140Z,93.50
2018-05-16T12:04:01.670Z,94.20
2018-05-16T12:06:29.193Z,93.20
2018-05-16T12:08:56.694Z,95.20
2018-05-16T12:11:24.230Z,95.80
2018-05-16T12:13:51.751Z,95.70
2018-05-16T12:16:19.267Z,95.80
2018-05-16T12:18:46.807Z,94.70
2018-05-16T12:21:15.089Z,94.40
2018-05-16T12:23:42.611Z,94.30
2018-05-16T12:26:10.159Z,94.50
2018-05-16T12:28:38.237Z,93.50
2018-05-16T12:31:05.671Z,94.00
2018-05-16T12:33:33.193Z,94.10
2018-05-16T12:36:00.754Z,93.90
2018-05-16T12:38:28.254Z,93.90
2018-05-16T12:40:56.535Z,91.90
2018-05-16T12:43:29.915Z,91.80
2018-05-16T12:45:57.532Z,92.00
2018-05-16T12:48:25.027Z,91.70
2018-05-16T12:50:52.524Z,91.80
2018-05-16T12:53:20.049Z,91.60
2018-05-16T12:55:47.665Z,91.60
2018-05-16T12:58:15.146Z,92.00
2018-05-16T13:00:42.658Z,92.60
2018-05-16T13:03:10.194Z,93.30
2018-05-16T13:05:37.712Z,92.90
2018-05-16T13:08:05.239Z,93.00
2018-05-16T13:10:33.518Z,94.80
2018-05-16T13:13:01.843Z,95.20
2018-05-16T13:15:29.331Z,94.80
2018-05-16T13:17:56.924Z,94.40
2018-05-16T13:20:24.431Z,95.00
2018-05-16T13:22:51.941Z,95.40
2018-05-16T13:25:19.490Z,95.20
2018-05-16T13:27:47.027Z,95.80
2018-05-16T13:30:14.561Z,96.20
2018-05-16T13:32:42.107Z,95.10
2018-05-16T13:35:09.616Z,95.50
2018-05-16T13:37:37.145Z,95.40
2018-05-16T13:40:04.672Z,96.40
2018-05-16T13:42:32.182Z,96.20
2018-05-16T13:44:59.702Z,96.80
2018-05-16T13:47:27.241Z,96.90
2018-05-16T13:49:55.523Z,97.80
2018-05-16T13:52:23.042Z,97.30
2018-05-16T13:54:50.614Z,97.70
2018-05-16T13:57:18.256Z,97.90
2018-05-16T13:59:45.774Z,98.40
2018-05-16T14:02:14.075Z,98.30
2018-05-16T14:04:41.598Z,98.20
2018-05-16T14:07:09.105Z,98.50
2018-05-16T14:09:36.637Z,98.80
2018-05-16T14:12:04.919Z,97.80
2018-05-16T14:14:32.429Z,97.80
2018-05-16T14:16:59.933Z,97.20
2018-05-16T14:19:27.603Z,97.20
2018-05-16T14:21:55.148Z,97.00
2018-05-16T14:24:22.666Z,96.10
2018-05-16T14:26:50.242Z,95.90
2018-05-16T14:29:18.215Z,95.90
2018-05-16T14:31:45.719Z,96.40
2018-05-16T14:34:13.232Z,96.10
2018-05-16T14:36:40.742Z,95.50
2018-05-16T14:39:09.005Z,94.30
2018-05-16T14:41:36.538Z,94.20
2018-05-16T14:44:04.035Z,93.60
2018-05-16T14:46:31.534Z,91.60
2018-05-16T14:48:59.059Z,91.60
2018-05-16T14:51:26.595Z,92.30
2018-05-16T14:53:54.106Z,92.70
2018-05-16T14:56:21.648Z,92.50
2018-05-16T14:58:49.147Z,93.40
2018-05-16T15:01:16.680Z,93.70
2018-05-16T15:03:44.215Z,94.50
2018-05-16T15:06:11.753Z,94.60
2018-05-16T15:08:40.029Z,94.30
2018-05-16T15:11:07.591Z,94.20
2018-05-16T15:13:35.119Z,95.00
2018-05-16T15:16:02.666Z,94.90
2018-05-16T15:18:30.205Z,95.40
2018-05-16T15:20:57.739Z,96.00
2018-05-16T15:23:25.278Z,96.30
2018-05-16T15:25:52.811Z,96.80
2018-05-16T15:28:20.317Z,97.50
2018-05-16T15:30:47.839Z,96.70
2018-05-16T15:33:15.472Z,96.60
2018-05-16T15:35:43.815Z,96.60
2018-05-16T15:38:12.114Z,96.70
2018-05-16T15:40:39.630Z,96.70
2018-05-16T15:43:07.186Z,96.50
2018-05-16T15:45:34.698Z,97.10
2018-05-16T15:48:02.232Z,97.40
2018-05-16T15:50:30.525Z,97.70
2018-05-16T15:52:58.039Z,97.60
2018-05-16T15:55:25.593Z,97.90
2018-05-16T15:57:53.101Z,98.00
2018-05-16T16:00:21.375Z,96.80
2018-05-16T16:02:48.969Z,96.80
2018-05-16T16:05:16.546Z,96.00
2018-05-16T16:07:44.068Z,95.90
2018-05-16T16:10:11.623Z,96.10
2018-05-16T16:12:39.904Z,95.60
2018-05-16T16:15:07.469Z,95.60
2018-05-16T16:17:35.006Z,96.10
2018-05-16T16:20:03.141Z,95.90
2018-05-16T16:22:30.679Z,96.00
2018-05-16T16:24:58.220Z,96.00
2018-05-16T16:27:25.731Z,96.10
2018-05-16T16:29:53.270Z,96.40
2018-05-16T16:32:20.786Z,96.80
2018-05-16T16:34:48.346Z,95.80
2018-05-16T16:37:16.487Z,96.00
2018-05-16T16:39:44.026Z,96.00
2018-05-16T16:42:11.531Z,96.50
2018-05-16T16:44:39.060Z,97.10
2018-05-16T16:47:06.579Z,97.10
2018-05-16T16:49:34.088Z,97.50
2018-05-16T16:52:01.688Z,97.60
2018-05-16T16:54:30.017Z,97.50
2018-05-16T16:56:57.546Z,97.50
2018-05-16T16:59:25.824Z,97.60
2018-05-16T17:01:53.326Z,98.00
2018-05-16T17:04:20.881Z,97.70
2018-05-16T17:06:48.421Z,97.60
2018-05-16T17:09:15.927Z,97.80
2018-05-16T17:11:43.462Z,98.30
2018-05-16T17:14:11.015Z,97.90
2018-05-16T17:16:40.350Z,98.00
2018-05-16T17:19:07.842Z,98.20
2018-05-16T17:21:36.150Z,98.50
2018-05-16T17:24:03.670Z,98.50
2018-05-16T17:26:31.964Z,98.70
2018-05-16T17:28:59.526Z,98.70
2018-05-16T17:31:27.075Z,98.60
2018-05-16T17:33:54.619Z,98.70
2018-05-16T17:36:22.145Z,98.80
2018-05-16T17:38:49.679Z,99.00
2018-05-16T17:41:18.004Z,99.20
2018-05-16T17:43:45.612Z,99.30
2018-05-16T17:46:13.854Z,99.30
2018-05-16T17:48:41.255Z,99.20
2018-05-16T17:51:08.791Z,99.00
2018-05-16T17:53:37.477Z,99.50
2018-05-16T17:56:05.761Z,99.60
2018-05-16T17:58:33.291Z,99.60
2018-05-16T18:01:01.748Z,99.00
2018-05-16T18:03:29.233Z,99.50
2018-05-16T18:05:56.763Z,99.60
2018-05-16T18:08:24.302Z,99.60
2018-05-16T18:10:52.315Z,99.50
2018-05-16T18:16:42.584Z,99.60
2018-05-16T18:19:10.124Z,99.80
2018-05-16T18:21:38.421Z,99.90
2018-05-16T18:24:06.056Z,99.90
2018-05-16T18:26:33.774Z,99.90
2018-05-16T18:29:01.310Z,99.90
2018-05-16T18:31:28.866Z,99.90
2018-05-16T18:33:57.178Z,99.90
2018-05-16T18:36:24.698Z,99.90
2018-05-16T18:38:53.009Z,99.90
2018-05-16T18:41:20.561Z,99.90
2018-05-16T18:43:48.129Z,99.90
2018-05-16T18:46:15.625Z,99.90
2018-05-16T18:48:43.158Z,99.90
2018-05-16T18:51:10.672Z,99.90
2018-05-16T18:53:39.096Z,99.90
2018-05-16T18:56:06.631Z,99.90
2018-05-16T18:58:34.180Z,99.90
2018-05-16T19:01:02.825Z,99.90
2018-05-16T19:03:30.343Z,99.90
2018-05-16T19:05:58.122Z,99.90
2018-05-16T19:08:25.714Z,99.90
2018-05-16T19:10:53.625Z,99.90
2018-05-16T19:13:21.895Z,99.90
2018-05-16T19:15:49.456Z,99.90
2018-05-16T19:18:16.964Z,99.90
2018-05-16T19:20:44.508Z,99.90
2018-05-16T19:23:12.054Z,99.90
2018-05-16T19:25:40.326Z,99.90
2018-05-16T19:28:08.632Z,99.90
2018-05-16T19:30:36.155Z,99.90
2018-05-16T19:33:04.461Z,99.90
2018-05-16T19:35:32.034Z,99.90
2018-05-16T19:37:59.572Z,99.90
2018-05-16T19:40:27.139Z,99.90
2018-05-16T19:42:55.411Z,99.90
2018-05-16T19:45:23.706Z,99.90
2018-05-16T19:47:51.215Z,99.90
2018-05-16T19:50:18.740Z,99.90
2018-05-16T19:52:46.395Z,99.90
2018-05-16T19:55:13.893Z,99.90
2018-05-16T19:57:41.422Z,99.90
2018-05-16T20:00:08.949Z,99.90
2018-05-16T20:02:36.473Z,99.90
2018-05-16T20:05:03.998Z,99.90
2018-05-16T20:07:31.555Z,99.90
2018-05-16T20:09:59.087Z,99.90
2018-05-16T20:12:26.610Z,99.90
2018-05-16T20:14:54.272Z,99.90
2018-05-16T20:17:21.707Z,99.90
2018-05-16T20:19:49.226Z,99.90
2018-05-16T20:22:17.926Z,99.90
2018-05-16T20:24:45.573Z,99.90
2018-05-16T20:27:13.903Z,99.90
2018-05-16T20:29:41.534Z,99.90
2018-05-16T20:32:09.072Z,99.90
2018-05-16T20:34:37.334Z,99.90
2018-05-16T20:37:04.865Z,99.90
2018-05-16T20:39:32.466Z,99.90
2018-05-16T20:41:59.995Z,99.90
2018-05-16T20:44:27.494Z,99.90
2018-05-16T20:46:55.787Z,99.90
2018-05-16T20:49:23.304Z,99.90
2018-05-16T20:51:51.232Z,99.90
2018-05-16T20:54:19.374Z,99.90
2018-05-16T20:56:47.678Z,99.90
2018-05-16T20:59:15.191Z,99.90
2018-05-16T21:01:42.695Z,99.90
2018-05-16T21:04:10.210Z,99.90
2018-05-16T21:06:37.741Z,99.90
2018-05-16T21:09:06.198Z,99.90
2018-05-16T21:11:33.739Z,99.90
2018-05-16T21:14:02.063Z,99.90
2018-05-16T21:16:29.569Z,99.90
2018-05-16T21:18:57.878Z,99.90
2018-05-16T21:21:27.090Z,99.90
2018-05-16T21:23:54.687Z,99.90
2018-05-16T21:26:22.227Z,99.90
2018-05-16T21:28:49.746Z,99.90
2018-05-16T21:31:18.037Z,99.90
2018-05-16T21:33:45.543Z,99.90
2018-05-16T21:36:13.077Z,99.90
2018-05-16T21:38:40.593Z,99.90
2018-05-16T21:41:09.213Z,99.90
2018-05-16T21:43:36.726Z,99.90
2018-05-16T21:46:04.322Z,99.90
2018-05-16T21:48:31.831Z,99.90
2018-05-16T21:50:59.359Z,99.90
2018-05-16T21:53:26.858Z,99.90
2018-05-16T21:55:54.599Z,99.90
2018-05-16T21:58:22.149Z,99.90
2018-05-16T22:00:49.669Z,99.90
2018-05-16T22:03:17.947Z,99.90
2018-05-16T22:05:46.270Z,99.90
2018-05-16T22:08:13.771Z,99.90
2018-05-16T22:10:41.435Z,99.90
2018-05-16T22:13:08.965Z,99.90
2018-05-16T22:15:36.544Z,99.90
2018-05-16T22:18:04.063Z,99.90
2018-05-16T22:20:31.602Z,99.90
2018-05-16T22:22:59.874Z,99.90
2018-05-16T22:25:28.149Z,99.90
2018-05-16T22:27:55.765Z,99.90
2018-05-16T22:30:28.885Z,99.90
2018-05-16T22:33:02.043Z,99.90
2018-05-16T22:35:35.248Z,99.90
2018-05-16T22:38:08.450Z,99.90
2018-05-16T22:40:41.670Z,99.90
2018-05-16T22:43:08.717Z,99.90
2018-05-16T22:45:41.765Z,99.90
2018-05-16T22:48:09.293Z,99.90
2018-05-16T22:50:36.827Z,99.90
2018-05-16T22:53:04.371Z,99.90
2018-05-16T22:55:31.874Z,99.90
2018-05-16T22:57:59.427Z,99.90
2018-05-16T23:00:27.910Z,99.90
2018-05-16T23:02:55.434Z,99.90
2018-05-16T23:05:22.934Z,99.90
2018-05-16T23:07:50.434Z,99.90
2018-05-16T23:10:17.962Z,99.90
2018-05-16T23:12:45.474Z,99.90
2018-05-16T23:15:12.978Z,99.90
2018-05-16T23:17:40.496Z,99.90
2018-05-16T23:20:07.994Z,99.90
2018-05-16T23:22:35.514Z,99.90
2018-05-16T23:25:03.042Z,99.90
2018-05-16T23:27:30.558Z,99.90
2018-05-16T23:29:58.133Z,99.90
2018-05-16T23:32:25.682Z,99.90
2018-05-16T23:34:53.188Z,99.90
2018-05-16T23:37:20.737Z,99.90
2018-05-16T23:39:48.246Z,99.90
2018-05-16T23:42:15.792Z,99.90
2018-05-16T23:44:43.303Z,99.90
2018-05-16T23:47:10.867Z,99.90
2018-05-16T23:49:39.317Z,99.90
2018-05-16T23:52:06.870Z,99.90
2018-05-16T23:54:34.373Z,99.90
2018-05-16T23:57:02.045Z,99.90
2018-05-16T23:59:29.627Z,99.90
